Time;durP1;ratioP1;P1;durP2;ratioP2;P2;SDS_P1;SDS_P2;PMS_P1;PMS_P2;Temp;Humidity;BMP_temperature;BMP_pressure;BME280_temperature;BME280_humidity;BME280_pressure;Samples;Min_cycle;Max_cycle;Signal;HPM_P1;HPM_P2
2023/02/27 05:43:19;;;;;;;10.00;7.40;;;;;;;1.74;100.00;100293.60;111267;1249;22505;-51
2023/02/27 05:45:47;;;;;;;17.60;8.90;;;;;;;1.81;100.00;100297.12;112822;1249;22353;-44
2023/02/27 05:48:20;;;;;;;11.60;8.40;;;;;;;1.89;100.00;100302.38;112616;1249;22221;-44
2023/02/27 05:50:48;;;;;;;14.50;8.30;;;;;;;1.97;100.00;100298.35;112803;1249;23078;-45
2023/02/27 05:53:16;;;;;;;13.30;8.20;;;;;;;2.05;100.00;100294.33;112801;1249;22403;-44
2023/02/27 05:55:49;;;;;;;11.20;7.60;;;;;;;2.13;100.00;100285.84;113040;1249;23027;-46
2023/02/27 05:58:31;;;;;;;10.80;7.50;;;;;;;2.20;100.00;100282.45;112860;1248;23673;-45
2023/02/27 06:00:59;;;;;;;10.20;8.00;;;;;;;2.27;100.00;100290.80;112810;1249;239231;-44
2023/02/27 06:03:27;;;;;;;15.30;7.90;;;;;;;2.33;100.00;100300.09;112732;1249;23333;-52
2023/02/27 06:05:54;;;;;;;8.90;6.90;;;;;;;2.39;100.00;100310.12;112728;1249;22415;-53
2023/02/27 06:08:22;;;;;;;7.90;6.30;;;;;;;2.45;100.00;100311.52;112861;1249;22320;-54
2023/02/27 06:10:51;;;;;;;8.60;6.40;;;;;;;2.48;100.00;100311.77;112722;1249;22754;-46
2023/02/27 06:13:19;;;;;;;11.30;6.40;;;;;;;2.52;100.00;100314.67;112865;1249;22657;-46
2023/02/27 06:15:46;;;;;;;10.00;6.50;;;;;;;2.56;100.00;100314.46;112457;1249;22282;-46
2023/02/27 06:18:17;;;;;;;10.80;7.10;;;;;;;2.59;100.00;100309.39;112534;1249;23104;-53
2023/02/27 06:20:45;;;;;;;10.00;6.60;;;;;;;2.62;100.00;100313.29;112409;1249;22964;-45
2023/02/27 06:23:16;;;;;;;8.40;6.00;;;;;;;2.64;100.00;100310.23;112195;1249;22981;-54
2023/02/27 06:25:43;;;;;;;8.80;5.80;;;;;;;2.65;100.00;100303.89;112771;1249;22328;-47
2023/02/27 06:28:10;;;;;;;9.00;5.90;;;;;;;2.67;100.00;100309.66;112421;1249;22231;-54
2023/02/27 06:30:37;;;;;;;7.90;5.50;;;;;;;2.68;100.00;100310.55;112591;1249;22482;-45
2023/02/27 06:33:04;;;;;;;10.40;5.70;;;;;;;2.69;100.00;100314.50;112505;1249;22399;-46
2023/02/27 06:35:31;;;;;;;8.00;5.60;;;;;;;2.70;100.00;100313.34;112551;1249;22351;-45
2023/02/27 06:37:58;;;;;;;6.50;4.90;;;;;;;2.72;100.00;100307.02;112523;1249;22761;-55
2023/02/27 06:40:24;;;;;;;6.30;4.30;;;;;;;2.72;100.00;100299.10;112648;1249;23161;-54
2023/02/27 06:42:51;;;;;;;5.00;4.00;;;;;;;2.74;100.00;100301.08;112680;1249;22643;-54
2023/02/27 06:45:18;;;;;;;4.30;3.70;;;;;;;2.77;100.00;100308.39;112622;1249;23099;-45
2023/02/27 06:47:45;;;;;;;4.80;3.80;;;;;;;2.78;100.00;100311.52;112594;1249;22930;-46
2023/02/27 06:50:12;;;;;;;7.50;4.20;;;;;;;2.80;100.00;100307.96;112629;1249;22729;-53
2023/02/27 06:52:40;;;;;;;6.30;4.00;;;;;;;2.83;100.00;100300.66;112623;1249;22331;-46
2023/02/27 06:55:08;;;;;;;5.90;3.70;;;;;;;2.88;100.00;100297.20;112726;1249;22247;-47
2023/02/27 06:57:35;;;;;;;8.90;3.50;;;;;;;2.91;100.00;100290.78;112736;1249;22383;-46
2023/02/27 07:00:03;;;;;;;7.30;3.10;;;;;;;2.94;100.00;100297.56;112772;1249;22853;-46
2023/02/27 07:02:30;;;;;;;5.10;3.10;;;;;;;2.95;100.00;100308.95;112840;1249;23341;-54
2023/02/27 07:04:59;;;;;;;3.10;2.80;;;;;;;2.96;100.00;100325.05;112906;1249;22460;-54
2023/02/27 07:07:32;;;;;;;5.80;3.80;;;;;;;2.96;100.00;100338.10;112970;1249;22383;-54
2023/02/27 07:10:06;;;;;;;4.30;3.30;;;;;;;2.97;100.00;100345.55;112767;1249;26485;-54
2023/02/27 07:12:33;;;;;;;6.20;3.30;;;;;;;2.96;100.00;100349.84;112679;1249;22517;-54
2023/02/27 07:15:00;;;;;;;3.80;2.80;;;;;;;2.96;100.00;100341.38;112983;1249;22377;-55
2023/02/27 07:17:27;;;;;;;3.80;2.90;;;;;;;2.97;100.00;100337.82;112971;1249;22224;-52
2023/02/27 07:19:58;;;;;;;3.70;2.50;;;;;;;3.00;100.00;100341.51;112925;1249;22403;-52
2023/02/27 07:22:25;;;;;;;3.00;2.70;;;;;;;2.98;100.00;100336.80;112896;1249;22417;-45
2023/02/27 07:24:51;;;;;;;3.60;3.00;;;;;;;2.96;100.00;100333.12;112905;1249;23027;-45
2023/02/27 07:27:18;;;;;;;4.50;3.00;;;;;;;2.95;100.00;100333.45;112863;1249;22408;-54
2023/02/27 07:29:45;;;;;;;5.00;3.50;;;;;;;2.95;100.00;100330.66;112551;1249;22542;-52
2023/02/27 07:32:13;;;;;;;4.50;3.30;;;;;;;2.96;100.00;100332.09;112429;1249;22897;-45
2023/02/27 07:34:41;;;;;;;5.40;4.40;;;;;;;2.95;100.00;100337.94;112527;1249;22739;-46
2023/02/27 07:37:08;;;;;;;5.70;5.10;;;;;;;2.93;100.00;100336.11;112772;1249;22465;-53
2023/02/27 07:39:37;;;;;;;4.60;4.20;;;;;;;2.94;100.00;100342.02;112723;1249;22990;-54
2023/02/27 07:42:04;;;;;;;7.40;4.90;;;;;;;2.97;100.00;100350.73;112653;1249;22433;-46
2023/02/27 07:44:32;;;;;;;6.60;5.40;;;;;;;2.98;100.00;100351.45;112565;1249;23044;-45
2023/02/27 07:46:59;;;;;;;8.10;5.40;;;;;;;3.00;100.00;100345.98;111466;1249;22450;-47
2023/02/27 07:49:27;;;;;;;5.80;5.10;;;;;;;3.02;100.00;100341.05;112565;1249;22402;-46
2023/02/27 07:51:55;;;;;;;6.90;5.80;;;;;;;2.98;100.00;100341.61;112646;1248;22541;-45
2023/02/27 07:54:23;;;;;;;6.40;5.20;;;;;;;2.96;100.00;100350.34;112632;1249;22486;-57
2023/02/27 07:56:53;;;;;;;9.80;6.70;;;;;;;2.91;100.00;100352.45;112788;1249;22856;-54
2023/02/27 07:59:23;;;;;;;6.20;5.40;;;;;;;2.83;100.00;100354.25;112740;1249;22437;-46
2023/02/27 08:01:51;;;;;;;8.10;5.90;;;;;;;2.79;100.00;100353.95;112180;1249;23227;-54
2023/02/27 08:04:20;;;;;;;10.50;5.80;;;;;;;2.78;100.00;100358.90;112635;1249;23813;-54
2023/02/27 08:06:47;;;;;;;9.50;5.30;;;;;;;2.79;100.00;100356.02;112598;1249;22458;-55
2023/02/27 08:09:14;;;;;;;6.30;5.20;;;;;;;2.81;100.00;100346.45;112692;1249;22346;-54
2023/02/27 08:11:42;;;;;;;7.10;5.00;;;;;;;2.85;100.00;100335.73;112690;1249;22525;-53
2023/02/27 08:14:09;;;;;;;6.40;5.30;;;;;;;2.89;100.00;100323.41;111614;1249;23201;-55
2023/02/27 08:16:51;;;;;;;4.90;4.40;;;;;;;2.87;100.00;100319.91;112548;1249;22396;-46
2023/02/27 08:19:39;;;;;;;7.90;4.30;;;;;;;2.87;100.00;100322.16;112737;1249;22801;-47
2023/02/27 08:22:07;;;;;;;6.90;4.80;;;;;;;2.87;100.00;100319.56;112606;1249;22148;-54
2023/02/27 08:24:35;;;;;;;9.60;4.90;;;;;;;2.88;100.00;100315.30;112477;1248;22415;-54
2023/02/27 08:27:02;;;;;;;9.60;5.20;;;;;;;2.91;100.00;100317.46;112586;1249;22737;-55
2023/02/27 08:29:49;;;;;;;7.80;4.70;;;;;;;2.93;100.00;100326.82;112698;1249;22480;-54
2023/02/27 08:32:47;;;;;;;9.10;5.00;;;;;;;2.96;100.00;100333.98;112562;1249;22402;-55
2023/02/27 08:36:03;;;;;;;7.30;5.70;;;;;;;3.03;100.00;100335.05;112493;1249;23303;-46
2023/02/27 08:38:30;;;;;;;5.50;4.90;;;;;;;3.05;100.00;100341.84;112599;1249;22949;-47
2023/02/27 08:40:57;;;;;;;5.80;5.00;;;;;;;3.07;100.00;100347.23;112817;1248;22374;-47
2023/02/27 08:43:23;;;;;;;7.70;5.50;;;;;;;3.08;100.00;100354.16;112872;1249;22493;-46
2023/02/27 08:45:53;;;;;;;5.50;4.90;;;;;;;3.10;100.00;100362.84;112852;1249;22825;-45
2023/02/27 08:48:20;;;;;;;5.30;4.20;;;;;;;3.11;100.00;100369.08;112775;1249;23566;-46
2023/02/27 08:50:47;;;;;;;6.00;4.50;;;;;;;3.12;100.00;100371.70;112710;1249;23124;-46
2023/02/27 08:53:15;;;;;;;5.90;4.90;;;;;;;3.12;100.00;100378.58;112661;1249;22186;-44
2023/02/27 08:55:48;;;;;;;8.70;4.70;;;;;;;3.10;100.00;100384.56;112376;1249;22459;-46
2023/02/27 08:58:16;;;;;;;7.20;5.30;;;;;;;3.09;100.00;100388.15;112733;1249;22373;-45
2023/02/27 09:00:48;;;;;;;13.60;6.30;;;;;;;3.06;100.00;100385.30;112275;1249;22193;-47
2023/02/27 09:03:15;;;;;;;8.80;6.40;;;;;;;2.99;100.00;100376.27;112653;1249;22956;-46
2023/02/27 09:05:42;;;;;;;8.60;6.10;;;;;;;2.92;100.00;100379.02;112638;1249;23184;-54
2023/02/27 09:08:10;;;;;;;8.00;5.90;;;;;;;2.87;100.00;100380.58;112749;1249;23026;-46
2023/02/27 09:10:38;;;;;;;6.90;5.10;;;;;;;2.81;100.00;100374.52;112718;1249;22349;-47
2023/02/27 09:13:06;;;;;;;6.60;5.00;;;;;;;2.73;100.00;100367.70;112720;1249;22410;-45
2023/02/27 09:15:37;;;;;;;6.00;5.20;;;;;;;2.67;100.00;100366.30;112782;1249;22234;-54
2023/02/27 09:18:08;;;;;;;10.50;7.30;;;;;;;2.62;100.00;100372.02;112643;1249;22395;-45
2023/02/27 09:20:36;;;;;;;16.90;9.10;;;;;;;2.58;100.00;100368.06;112833;1248;23173;-47
2023/02/27 09:23:02;;;;;;;8.30;7.00;;;;;;;2.54;100.00;100363.10;112703;1249;23142;-55
2023/02/27 09:25:30;;;;;;;8.20;6.40;;;;;;;2.53;100.00;100362.92;112477;1248;22452;-54
2023/02/27 09:27:58;;;;;;;8.90;7.20;;;;;;;2.51;100.00;100368.89;112783;1249;22476;-54
2023/02/27 09:30:24;;;;;;;8.40;7.00;;;;;;;2.48;100.00;100369.63;112828;1249;22807;-55
2023/02/27 09:32:52;;;;;;;7.90;6.80;;;;;;;2.42;100.00;100371.68;112666;1249;22447;-56
2023/02/27 09:35:24;;;;;;;10.50;7.60;;;;;;;2.36;100.00;100371.14;112791;1249;23264;-46
2023/02/27 09:37:51;;;;;;;8.00;7.10;;;;;;;2.32;100.00;100382.00;112791;1249;22269;-47
2023/02/27 09:40:28;;;;;;;9.00;7.40;;;;;;;2.29;100.00;100389.48;112915;1249;22250;-47
2023/02/27 09:42:59;;;;;;;11.10;7.60;;;;;;;2.27;100.00;100394.07;112823;1249;23612;-55
2023/02/27 09:45:28;;;;;;;10.70;8.30;;;;;;;2.27;100.00;100390.79;112491;1248;22489;-48
2023/02/27 09:48:00;;;;;;;12.80;9.00;;;;;;;2.28;100.00;100383.94;112341;1241;22365;-55
2023/02/27 09:50:38;;;;;;;11.10;8.70;;;;;;;2.30;100.00;100379.33;111922;1249;25205;-56
2023/02/27 09:53:14;;;;;;;12.70;9.20;;;;;;;2.31;100.00;100380.40;112519;1249;23261;-54
2023/02/27 09:55:45;;;;;;;13.50;9.10;;;;;;;2.31;100.00;100384.56;111753;1249;22409;-46
2023/02/27 09:58:40;;;;;;;11.50;9.60;;;;;;;2.35;100.00;100386.06;112300;1249;22402;-52
2023/02/27 10:01:15;;;;;;;16.40;9.90;;;;;;;2.38;100.00;100387.57;112253;1248;22897;-54
2023/02/27 10:03:51;;;;;;;16.80;10.70;;;;;;;2.41;100.00;100392.30;111850;1249;23055;-46
2023/02/27 10:06:35;;;;;;;11.40;9.20;;;;;;;2.42;100.00;100384.40;111943;1249;25421;-47
2023/02/27 10:09:27;;;;;;;16.10;10.60;;;;;;;2.43;100.00;100378.38;111470;1239;24343;-55
2023/02/27 10:12:28;;;;;;;14.40;9.90;;;;;;;2.43;100.00;100382.55;112456;1248;22689;-46
2023/02/27 10:14:56;;;;;;;13.50;9.50;;;;;;;2.42;100.00;100381.82;111793;1237;24188;-53
2023/02/27 10:17:30;;;;;;;13.90;9.90;;;;;;;2.41;100.00;100379.03;110975;1249;22422;-53
2023/02/27 10:20:00;;;;;;;13.40;9.70;;;;;;;2.37;100.00;100378.58;111417;1249;22454;-45
2023/02/27 10:22:30;;;;;;;13.50;9.70;;;;;;;2.35;100.00;100382.28;112094;1241;23470;-48
2023/02/27 10:25:13;;;;;;;14.20;9.90;;;;;;;2.36;100.00;100381.61;112073;1249;22523;-46
2023/02/27 10:28:02;;;;;;;11.80;8.80;;;;;;;2.36;100.00;100376.29;111732;1249;22523;-53
2023/02/27 10:30:29;;;;;;;13.60;9.50;;;;;;;2.35;100.00;100374.86;112298;1249;22447;-45
2023/02/27 10:33:08;;;;;;;17.50;9.70;;;;;;;2.35;100.00;100373.31;112031;1248;22816;-45
2023/02/27 10:35:40;;;;;;;13.80;9.50;;;;;;;2.35;100.00;100379.36;112381;1249;22415;-45
2023/02/27 10:38:14;;;;;;;12.90;8.70;;;;;;;2.37;100.00;100385.98;112382;1249;22736;-54
2023/02/27 10:40:40;;;;;;;;;;;;;;;2.39;100.00;100386.55;112687;1249;22371;-54
2023/02/27 10:43:08;;;;;;;12.10;7.50;;;;;;;2.39;100.00;100386.55;112193;1249;23014;-54
2023/02/27 10:45:38;;;;;;;11.50;7.20;;;;;;;2.40;100.00;100396.07;112346;1248;23337;-56
2023/02/27 10:48:14;;;;;;;8.30;6.50;;;;;;;2.42;100.00;100401.08;112585;1248;22378;-55
2023/02/27 10:51:13;;;;;;;9.40;6.40;;;;;;;2.43;100.00;100402.68;112533;1249;22470;-55
2023/02/27 10:53:41;;;;;;;10.60;7.40;;;;;;;2.45;100.00;100403.80;112392;1249;22530;-53
2023/02/27 10:56:13;;;;;;;11.80;6.30;;;;;;;2.48;100.00;100402.34;112360;1249;22289;-54
2023/02/27 10:58:40;;;;;;;9.00;6.10;;;;;;;2.51;100.00;100400.02;112605;1248;22931;-51
2023/02/27 11:01:08;;;;;;;7.70;5.90;;;;;;;2.50;100.00;100403.13;112254;1249;22617;-56
2023/02/27 11:03:43;;;;;;;8.00;5.40;;;;;;;2.50;100.00;100401.39;112758;1249;22411;-51
2023/02/27 11:06:28;;;;;;;10.10;5.80;;;;;;;2.48;100.00;100394.94;112790;1249;22386;-55
2023/02/27 11:09:29;;;;;;;9.30;5.70;;;;;;;2.47;100.00;100396.96;112464;1249;23199;-44
2023/02/27 11:12:25;;;;;;;9.70;5.20;;;;;;;2.42;100.00;100398.16;111554;1249;22284;-53
2023/02/27 11:15:00;;;;;;;7.10;4.90;;;;;;;2.37;100.00;100398.54;112079;1249;26425;-56
2023/02/27 11:17:30;;;;;;;9.50;5.30;;;;;;;2.34;100.00;100405.31;112271;1249;22248;-46
2023/02/27 11:20:04;;;;;;;9.20;5.40;;;;;;;2.31;100.00;100404.86;112718;1249;22418;-56
2023/02/27 11:22:31;;;;;;;8.10;5.50;;;;;;;2.28;100.00;100401.48;112751;1249;22429;-56
2023/02/27 11:25:16;;;;;;;6.80;5.40;;;;;;;2.26;100.00;100388.52;112801;1248;22958;-56
2023/02/27 11:27:45;;;;;;;8.10;5.70;;;;;;;2.27;100.00;100386.98;112388;1248;23025;-48
2023/02/27 11:30:25;;;;;;;7.20;4.70;;;;;;;2.30;100.00;100387.77;112658;1248;24280;-57
2023/02/27 11:32:56;;;;;;;8.10;6.00;;;;;;;2.33;100.00;100388.59;112742;1249;22457;-57
2023/02/27 11:36:12;;;;;;;7.70;6.20;;;;;;;2.37;100.00;100384.94;112520;1249;22991;-57
2023/02/27 11:39:03;;;;;;;8.50;5.90;;;;;;;2.39;100.00;100381.23;112580;1249;23069;-58
2023/02/27 11:42:10;;;;;;;10.60;6.30;;;;;;;2.37;100.00;100386.81;112672;1249;22384;-57
2023/02/27 11:45:16;;;;;;;10.00;5.80;;;;;;;2.38;100.00;100391.15;112813;1248;23781;-59
2023/02/27 11:48:22;;;;;;;10.70;5.70;;;;;;;2.38;100.00;100388.23;112824;1249;22354;-55
2023/02/27 11:51:27;;;;;;;12.20;6.80;;;;;;;2.34;100.00;100393.61;112713;1249;22471;-46
2023/02/27 11:54:03;;;;;;;9.80;6.40;;;;;;;2.32;100.00;100396.29;111923;1256;22426;-57
2023/02/27 11:56:36;;;;;;;9.80;6.40;;;;;;;2.34;100.00;100396.53;111998;1256;22424;-47
2023/02/27 11:59:31;;;;;;;11.20;6.90;;;;;;;2.34;100.00;100400.50;111989;1256;22376;-47
2023/02/27 12:02:02;;;;;;;9.10;6.40;;;;;;;2.33;100.00;100401.33;111803;1256;22785;-47
2023/02/27 12:04:46;;;;;;;7.40;5.50;;;;;;;2.34;100.00;100405.81;111896;1256;22833;-47
2023/02/27 12:07:35;;;;;;;9.10;6.10;;;;;;;2.35;100.00;100410.00;112028;1256;23175;-47
2023/02/27 12:10:17;;;;;;;8.80;6.20;;;;;;;2.38;100.00;100423.36;111937;1256;22451;-56
2023/02/27 12:12:55;;;;;;;7.70;5.80;;;;;;;2.41;100.00;100430.67;111740;1256;23093;-56
2023/02/27 12:15:30;;;;;;;9.00;6.20;;;;;;;2.42;100.00;100426.92;111851;1256;22387;-47
2023/02/27 12:18:04;;;;;;;8.90;5.90;;;;;;;2.43;100.00;100423.70;111819;1256;23335;-56
2023/02/27 12:20:35;;;;;;;11.80;6.30;;;;;;;2.47;100.00;100425.20;111885;1256;23517;-47
2023/02/27 12:23:11;;;;;;;8.50;6.60;;;;;;;2.50;100.00;100421.52;112028;1256;23186;-46
2023/02/27 12:25:52;;;;;;;8.50;5.80;;;;;;;2.52;100.00;100420.06;112013;1256;22576;-46
2023/02/27 12:28:22;;;;;;;8.50;6.20;;;;;;;2.52;100.00;100421.95;112428;1249;22392;-55
2023/02/27 12:31:17;;;;;;;9.50;6.60;;;;;;;2.54;100.00;100423.89;112896;1249;23257;-55
2023/02/27 12:33:48;;;;;;;9.00;6.70;;;;;;;2.59;100.00;100423.89;112947;1249;22420;-54
2023/02/27 12:36:15;;;;;;;12.00;7.40;;;;;;;2.61;100.00;100425.20;112658;1249;23013;-55
2023/02/27 12:38:42;;;;;;;15.60;7.40;;;;;;;2.63;100.00;100426.63;112909;1249;23087;-56
2023/02/27 12:41:54;;;;;;;13.50;8.20;;;;;;;2.64;100.00;100432.17;112727;1249;23300;-46
2023/02/27 12:44:43;;;;;;;10.70;7.90;;;;;;;2.65;100.00;100434.27;111921;1249;22433;-54
2023/02/27 12:47:19;;;;;;;11.10;8.50;;;;;;;2.63;100.00;100435.42;112897;1249;23456;-55
2023/02/27 12:50:12;;;;;;;13.50;9.90;;;;;;;2.62;100.00;100437.46;112747;1249;22257;-47
2023/02/27 12:52:45;;;;;;;13.40;10.40;;;;;;;2.61;100.00;100448.10;112358;1249;25298;-46
2023/02/27 12:55:18;;;;;;;;;;;;;;;2.62;100.00;100456.40;112044;1249;22478;-54
2023/02/27 12:57:58;;;;;;;13.50;9.90;;;;;;;2.64;100.00;100452.49;112457;1249;22507;-55
2023/02/27 13:00:29;;;;;;;13.80;10.60;;;;;;;2.64;100.00;100449.73;112783;1248;22421;-55
2023/02/27 13:02:57;;;;;;;15.50;11.80;;;;;;;2.64;100.00;100439.41;111548;1249;22475;-54
2023/02/27 13:05:58;;;;;;;16.40;11.20;;;;;;;2.66;100.00;100439.98;112942;1248;22396;-55
2023/02/27 13:08:46;;;;;;;17.00;11.30;;;;;;;2.66;100.00;100434.14;112814;1249;22385;-46
2023/02/27 13:11:36;;;;;;;15.40;11.10;;;;;;;2.66;100.00;100435.16;111910;1249;23249;-55
2023/02/27 13:14:10;;;;;;;17.40;11.50;;;;;;;2.65;100.00;100445.96;112825;1248;22471;-46
2023/02/27 13:16:45;;;;;;;14.20;10.50;;;;;;;2.61;100.00;100444.66;112313;1249;22390;-55
2023/02/27 13:19:19;;;;;;;16.20;11.60;;;;;;;2.57;100.00;100433.66;112975;1248;22249;-46
2023/02/27 13:22:05;;;;;;;13.70;10.80;;;;;;;2.55;100.00;100430.66;112682;1248;22446;-55
2023/02/27 13:24:32;;;;;;;18.30;11.90;;;;;;;2.53;100.00;100421.96;112768;1248;22384;-56
